Aviation Digital Data Service (ADDS)

Output produced by METARs form (1240 UTC 22 March 2019)
found at http://www.aviationweather.gov/metar/data/
 
METAR text: FGSL 221200Z 20003KT 140V230 8000 -TSRA SCT010 FEW020CB BKN050 25/23 Q1009 NOSIG
Conditions at: FGSL (MALABO/FERNANDO , GQ) observed 1200 UTC 22 March 2019
Temperature: 25.0°C (77°F)
Dewpoint: 23.0°C (73°F) [RH = 89%]
Pressure (altimeter): 29.79 inches Hg (1009.0 mb)
Winds: from the SSW (200 degrees) at 3 MPH (3 knots; 1.5 m/s)
Visibility: 5 miles ( 8 km)
Ceiling: 5000 feet AGL
Clouds: scattered clouds at 1000 feet AGL
few clouds at 2000 feet AGL
broken clouds at 5000 feet AGL
Weather: -TSRA  (light rain associated with thunderstorm(s))

METAR text: FGSL 221100Z 33008KT 300V020 8000 -TSRA SCT010 FEW016CB BKN050 24/21 Q1010 NOSIG
Conditions at: FGSL (MALABO/FERNANDO , GQ) observed 1100 UTC 22 March 2019
Temperature: 24.0°C (75°F)
Dewpoint: 21.0°C (70°F) [RH = 83%]
Pressure (altimeter): 29.82 inches Hg (1010.0 mb)
Winds: from the NNW (330 degrees) at 9 MPH (8 knots; 4.1 m/s)
Visibility: 5 miles ( 8 km)
Ceiling: 5000 feet AGL
Clouds: scattered clouds at 1000 feet AGL
few clouds at 1600 feet AGL
broken clouds at 5000 feet AGL
Weather: -TSRA  (light rain associated with thunderstorm(s))

METAR text: FGSL 221000Z 08013KT 8000 -TSRA BKN006 FEW016CB OVC050 25/21 Q1010 NOSIG
Conditions at: FGSL (MALABO/FERNANDO , GQ) observed 1000 UTC 22 March 2019
Temperature: 25.0°C (77°F)
Dewpoint: 21.0°C (70°F) [RH = 79%]
Pressure (altimeter): 29.82 inches Hg (1010.0 mb)
Winds: from the E (80 degrees) at 15 MPH (13 knots; 6.7 m/s)
Visibility: 5 miles ( 8 km)
Ceiling: 600 feet AGL
Clouds: broken clouds at 600 feet AGL
few clouds at 1600 feet AGL
overcast cloud deck at 5000 feet AGL
Weather: -TSRA  (light rain associated with thunderstorm(s))

METAR text: FGSL 220900Z 07022KT 8000 -TSRA BKN006 SCT016CB OVC050 25/22 Q1011 TEMPO 4000 TSRA
Conditions at: FGSL (MALABO/FERNANDO , GQ) observed 0900 UTC 22 March 2019
Temperature: 25.0°C (77°F)
Dewpoint: 22.0°C (72°F) [RH = 83%]
Pressure (altimeter): 29.85 inches Hg (1011.0 mb)
Winds: from the ENE (70 degrees) at 25 MPH (22 knots; 11.3 m/s)
Visibility: 5 miles ( 8 km)
Ceiling: 600 feet AGL
Clouds: broken clouds at 600 feet AGL
scattered clouds at 1600 feet AGL
overcast cloud deck at 5000 feet AGL
Weather: -TSRA  (light rain associated with thunderstorm(s))

METAR text: FGSL 220800Z 04017KT 1400 TSRA BKN006 SCT016CB OVC050 23/22 Q1013 TEMPO 0600 +TSRA
Conditions at: FGSL (MALABO/FERNANDO , GQ) observed 0800 UTC 22 March 2019
Temperature: 23.0°C (73°F)
Dewpoint: 22.0°C (72°F) [RH = 94%]
Pressure (altimeter): 29.91 inches Hg (1013.0 mb)
Winds: from the NE (40 degrees) at 20 MPH (17 knots; 8.7 m/s)
Visibility: 0.87 miles (1.40 km)
Ceiling: 600 feet AGL
Clouds: broken clouds at 600 feet AGL
scattered clouds at 1600 feet AGL
overcast cloud deck at 5000 feet AGL
Weather: TSRA  (rain associated with thunderstorm(s))

METAR text: FGSL 220700Z 24006KT 9999 TS SCT010 FEW020CB BKN050 29/24 Q1010 TEMPO 4000 TSRA BKN010 FEW020CB BKN050
Conditions at: FGSL (MALABO/FERNANDO , GQ) observed 0700 UTC 22 March 2019
Temperature: 29.0°C (84°F)
Dewpoint: 24.0°C (75°F) [RH = 74%]
Pressure (altimeter): 29.82 inches Hg (1010.0 mb)
Winds: from the WSW (240 degrees) at 7 MPH (6 knots; 3.1 m/s)
Visibility: 6 or more miles (10+ km)
Ceiling: 5000 feet AGL
Clouds: scattered clouds at 1000 feet AGL
few clouds at 2000 feet AGL
broken clouds at 5000 feet AGL
Weather: TS  (thunderstorm)

METAR text: FGSL 220600Z 23006KT 9999 TS FEW010 FEW020CB 27/23 Q1009 NOSIG
Conditions at: FGSL (MALABO/FERNANDO , GQ) observed 0600 UTC 22 March 2019
Temperature: 27.0°C (81°F)
Dewpoint: 23.0°C (73°F) [RH = 79%]
Pressure (altimeter): 29.79 inches Hg (1009.0 mb)
Winds: from the SW (230 degrees) at 7 MPH (6 knots; 3.1 m/s)
Visibility: 6 or more miles (10+ km)
Ceiling: at least 12,000 feet AGL
Clouds: few clouds at 1000 feet AGL
few clouds at 2000 feet AGL
Weather: TS  (thunderstorm)

METAR text: FGSL 220500Z 24006KT 9999 TS FEW010 FEW020CB 28/24 Q1008 NOSIG
Conditions at: FGSL (MALABO/FERNANDO , GQ) observed 0500 UTC 22 March 2019
Temperature: 28.0°C (82°F)
Dewpoint: 24.0°C (75°F) [RH = 79%]
Pressure (altimeter): 29.76 inches Hg (1008.0 mb)
Winds: from the WSW (240 degrees) at 7 MPH (6 knots; 3.1 m/s)
Visibility: 6 or more miles (10+ km)
Ceiling: at least 12,000 feet AGL
Clouds: few clouds at 1000 feet AGL
few clouds at 2000 feet AGL
Weather: TS  (thunderstorm)

METAR text: FGSL 220400Z 25008KT 9999 TS FEW010 FEW020CB 28/24 Q1007 NOSIG
Conditions at: FGSL (MALABO/FERNANDO , GQ) observed 0400 UTC 22 March 2019
Temperature: 28.0°C (82°F)
Dewpoint: 24.0°C (75°F) [RH = 79%]
Pressure (altimeter): 29.73 inches Hg (1007.0 mb)
Winds: from the WSW (250 degrees) at 9 MPH (8 knots; 4.1 m/s)
Visibility: 6 or more miles (10+ km)
Ceiling: at least 12,000 feet AGL
Clouds: few clouds at 1000 feet AGL
few clouds at 2000 feet AGL
Weather: TS  (thunderstorm)

METAR text: FGSL 220300Z 23007KT 9999 TS FEW010 FEW020CB 27/24 Q1008 NOSIG
Conditions at: FGSL (MALABO/FERNANDO , GQ) observed 0300 UTC 22 March 2019
Temperature: 27.0°C (81°F)
Dewpoint: 24.0°C (75°F) [RH = 84%]
Pressure (altimeter): 29.76 inches Hg (1008.0 mb)
Winds: from the SW (230 degrees) at 8 MPH (7 knots; 3.6 m/s)
Visibility: 6 or more miles (10+ km)
Ceiling: at least 12,000 feet AGL
Clouds: few clouds at 1000 feet AGL
few clouds at 2000 feet AGL
Weather: TS  (thunderstorm)

METAR text: FGSL 220200Z 23007KT 9999 TS FEW010 FEW020CB 28/24 Q1008 NOSIG
Conditions at: FGSL (MALABO/FERNANDO , GQ) observed 0200 UTC 22 March 2019
Temperature: 28.0°C (82°F)
Dewpoint: 24.0°C (75°F) [RH = 79%]
Pressure (altimeter): 29.76 inches Hg (1008.0 mb)
Winds: from the SW (230 degrees) at 8 MPH (7 knots; 3.6 m/s)
Visibility: 6 or more miles (10+ km)
Ceiling: at least 12,000 feet AGL
Clouds: few clouds at 1000 feet AGL
few clouds at 2000 feet AGL
Weather: TS  (thunderstorm)

METAR text: FGSL 220100Z 25009KT 9999 FEW010 29/24 Q1008 NOSIG
Conditions at: FGSL (MALABO/FERNANDO , GQ) observed 0100 UTC 22 March 2019
Temperature: 29.0°C (84°F)
Dewpoint: 24.0°C (75°F) [RH = 74%]
Pressure (altimeter): 29.76 inches Hg (1008.0 mb)
Winds: from the WSW (250 degrees) at 10 MPH (9 knots; 4.6 m/s)
Visibility: 6 or more miles (10+ km)
Ceiling: at least 12,000 feet AGL
Clouds: few clouds at 1000 feet AGL
Weather: no significant weather observed at this time

METAR text: FGSL 220000Z 24009KT 9999 FEW010 28/24 Q1008 NOSIG
Conditions at: FGSL (MALABO/FERNANDO , GQ) observed 0000 UTC 22 March 2019
Temperature: 28.0°C (82°F)
Dewpoint: 24.0°C (75°F) [RH = 79%]
Pressure (altimeter): 29.76 inches Hg (1008.0 mb)
Winds: from the WSW (240 degrees) at 10 MPH (9 knots; 4.6 m/s)
Visibility: 6 or more miles (10+ km)
Ceiling: at least 12,000 feet AGL
Clouds: few clouds at 1000 feet AGL
Weather: no significant weather observed at this time

METAR text: FGSL 212300Z 25007KT 9999 FEW010 28/25 Q1010 NOSIG
Conditions at: FGSL (MALABO/FERNANDO , GQ) observed 2300 UTC 21 March 2019
Temperature: 28.0°C (82°F)
Dewpoint: 25.0°C (77°F) [RH = 84%]
Pressure (altimeter): 29.82 inches Hg (1010.0 mb)
Winds: from the WSW (250 degrees) at 8 MPH (7 knots; 3.6 m/s)
Visibility: 6 or more miles (10+ km)
Ceiling: at least 12,000 feet AGL
Clouds: few clouds at 1000 feet AGL
Weather: no significant weather observed at this time

METAR text: FGSL 212200Z 23010KT 9999 FEW010 28/25 Q1010 NOSIG
Conditions at: FGSL (MALABO/FERNANDO , GQ) observed 2200 UTC 21 March 2019
Temperature: 28.0°C (82°F)
Dewpoint: 25.0°C (77°F) [RH = 84%]
Pressure (altimeter): 29.82 inches Hg (1010.0 mb)
Winds: from the SW (230 degrees) at 12 MPH (10 knots; 5.1 m/s)
Visibility: 6 or more miles (10+ km)
Ceiling: at least 12,000 feet AGL
Clouds: few clouds at 1000 feet AGL
Weather: no significant weather observed at this time

METAR text: FGSL 212100Z 24008KT 9999 FEW010 29/25 Q1009 NOSIG
Conditions at: FGSL (MALABO/FERNANDO , GQ) observed 2100 UTC 21 March 2019
Temperature: 29.0°C (84°F)
Dewpoint: 25.0°C (77°F) [RH = 79%]
Pressure (altimeter): 29.79 inches Hg (1009.0 mb)
Winds: from the WSW (240 degrees) at 9 MPH (8 knots; 4.1 m/s)
Visibility: 6 or more miles (10+ km)
Ceiling: at least 12,000 feet AGL
Clouds: few clouds at 1000 feet AGL
Weather: no significant weather observed at this time

METAR text: FGSL 212000Z 25010KT 9999 FEW010 29/25 Q1009 NOSIG
Conditions at: FGSL (MALABO/FERNANDO , GQ) observed 2000 UTC 21 March 2019
Temperature: 29.0°C (84°F)
Dewpoint: 25.0°C (77°F) [RH = 79%]
Pressure (altimeter): 29.79 inches Hg (1009.0 mb)
Winds: from the WSW (250 degrees) at 12 MPH (10 knots; 5.1 m/s)
Visibility: 6 or more miles (10+ km)
Ceiling: at least 12,000 feet AGL
Clouds: few clouds at 1000 feet AGL
Weather: no significant weather observed at this time

METAR text: FGSL 211900Z 23007KT 9999 FEW010 29/26 Q1008 NOSIG
Conditions at: FGSL (MALABO/FERNANDO , GQ) observed 1900 UTC 21 March 2019
Temperature: 29.0°C (84°F)
Dewpoint: 26.0°C (79°F) [RH = 84%]
Pressure (altimeter): 29.76 inches Hg (1008.0 mb)
Winds: from the SW (230 degrees) at 8 MPH (7 knots; 3.6 m/s)
Visibility: 6 or more miles (10+ km)
Ceiling: at least 12,000 feet AGL
Clouds: few clouds at 1000 feet AGL
Weather: no significant weather observed at this time

METAR text: FGSL 211800Z 24007KT 9999 FEW010 29/25 Q1007 NOSIG
Conditions at: FGSL (MALABO/FERNANDO , GQ) observed 1800 UTC 21 March 2019
Temperature: 29.0°C (84°F)
Dewpoint: 25.0°C (77°F) [RH = 79%]
Pressure (altimeter): 29.73 inches Hg (1007.0 mb)
Winds: from the WSW (240 degrees) at 8 MPH (7 knots; 3.6 m/s)
Visibility: 6 or more miles (10+ km)
Ceiling: at least 12,000 feet AGL
Clouds: few clouds at 1000 feet AGL
Weather: no significant weather observed at this time

METAR text: FGSL 211700Z 24012KT 9999 FEW010 30/25 Q1005 NOSIG
Conditions at: FGSL (MALABO/FERNANDO , GQ) observed 1700 UTC 21 March 2019
Temperature: 30.0°C (86°F)
Dewpoint: 25.0°C (77°F) [RH = 75%]
Pressure (altimeter): 29.68 inches Hg (1005.0 mb)
Winds: from the WSW (240 degrees) at 14 MPH (12 knots; 6.2 m/s)
Visibility: 6 or more miles (10+ km)
Ceiling: at least 12,000 feet AGL
Clouds: few clouds at 1000 feet AGL
Weather: no significant weather observed at this time

METAR text: FGSL 211600Z 25009KT 210V280 9999 SCT010 32/26 Q1006 NOSIG
Conditions at: FGSL (MALABO/FERNANDO , GQ) observed 1600 UTC 21 March 2019
Temperature: 32.0°C (90°F)
Dewpoint: 26.0°C (79°F) [RH = 71%]
Pressure (altimeter): 29.70 inches Hg (1006.0 mb)
Winds: from the WSW (250 degrees) at 10 MPH (9 knots; 4.6 m/s)
Visibility: 6 or more miles (10+ km)
Ceiling: at least 12,000 feet AGL
Clouds: scattered clouds at 1000 feet AGL
Weather: no significant weather observed at this time

METAR text: FGSL 211500Z 25011KT 220V280 9999 SCT010 32/25 Q1006 NOSIG
Conditions at: FGSL (MALABO/FERNANDO , GQ) observed 1500 UTC 21 March 2019
Temperature: 32.0°C (90°F)
Dewpoint: 25.0°C (77°F) [RH = 67%]
Pressure (altimeter): 29.70 inches Hg (1006.0 mb)
Winds: from the WSW (250 degrees) at 13 MPH (11 knots; 5.7 m/s)
Visibility: 6 or more miles (10+ km)
Ceiling: at least 12,000 feet AGL
Clouds: scattered clouds at 1000 feet AGL
Weather: no significant weather observed at this time

METAR text: FGSL 211400Z 25010KT 220V280 9999 SCT010 FEW020CB 32/26 Q1007 NOSIG
Conditions at: FGSL (MALABO/FERNANDO , GQ) observed 1400 UTC 21 March 2019
Temperature: 32.0°C (90°F)
Dewpoint: 26.0°C (79°F) [RH = 71%]
Pressure (altimeter): 29.73 inches Hg (1007.0 mb)
Winds: from the WSW (250 degrees) at 12 MPH (10 knots; 5.1 m/s)
Visibility: 6 or more miles (10+ km)
Ceiling: at least 12,000 feet AGL
Clouds: scattered clouds at 1000 feet AGL
few clouds at 2000 feet AGL
Weather: no significant weather observed at this time

METAR text: FGSL 211300Z 27010KT 220V320 9999 SCT010 32/26 Q1008 NOSIG
Conditions at: FGSL (MALABO/FERNANDO , GQ) observed 1300 UTC 21 March 2019
Temperature: 32.0°C (90°F)
Dewpoint: 26.0°C (79°F) [RH = 71%]
Pressure (altimeter): 29.76 inches Hg (1008.0 mb)
Winds: from the W (270 degrees) at 12 MPH (10 knots; 5.1 m/s)
Visibility: 6 or more miles (10+ km)
Ceiling: at least 12,000 feet AGL
Clouds: scattered clouds at 1000 feet AGL
Weather: no significant weather observed at this time

METAR text: FGSL 211200Z 28011KT 250V310 9999 SCT010 33/25 Q1009 NOSIG
Conditions at: FGSL (MALABO/FERNANDO , GQ) observed 1200 UTC 21 March 2019
Temperature: 33.0°C (91°F)
Dewpoint: 25.0°C (77°F) [RH = 63%]
Pressure (altimeter): 29.79 inches Hg (1009.0 mb)
Winds: from the W (280 degrees) at 13 MPH (11 knots; 5.7 m/s)
Visibility: 6 or more miles (10+ km)
Ceiling: at least 12,000 feet AGL
Clouds: scattered clouds at 1000 feet AGL
Weather: no significant weather observed at this time

METAR text: FGSL 211100Z 26009KT 240V300 9999 FEW010 34/24 Q1010 NOSIG
Conditions at: FGSL (MALABO/FERNANDO , GQ) observed 1100 UTC 21 March 2019
Temperature: 34.0°C (93°F)
Dewpoint: 24.0°C (75°F) [RH = 56%]
Pressure (altimeter): 29.82 inches Hg (1010.0 mb)
Winds: from the W (260 degrees) at 10 MPH (9 knots; 4.6 m/s)
Visibility: 6 or more miles (10+ km)
Ceiling: at least 12,000 feet AGL
Clouds: few clouds at 1000 feet AGL
Weather: no significant weather observed at this time

METAR text: FGSL 211000Z 29005KT 250V330 9999 SCT010 32/24 Q1011 NOSIG
Conditions at: FGSL (MALABO/FERNANDO , GQ) observed 1000 UTC 21 March 2019
Temperature: 32.0°C (90°F)
Dewpoint: 24.0°C (75°F) [RH = 63%]
Pressure (altimeter): 29.85 inches Hg (1011.0 mb)
Winds: from the WNW (290 degrees) at 6 MPH (5 knots; 2.6 m/s)
Visibility: 6 or more miles (10+ km)
Ceiling: at least 12,000 feet AGL
Clouds: scattered clouds at 1000 feet AGL
Weather: no significant weather observed at this time

METAR text: FGSL 210900Z 06005KT 030V090 9999 FEW010 32/25 Q1011 NOSIG
Conditions at: FGSL (MALABO/FERNANDO , GQ) observed 0900 UTC 21 March 2019
Temperature: 32.0°C (90°F)
Dewpoint: 25.0°C (77°F) [RH = 67%]
Pressure (altimeter): 29.85 inches Hg (1011.0 mb)
Winds: from the ENE (60 degrees) at 6 MPH (5 knots; 2.6 m/s)
Visibility: 6 or more miles (10+ km)
Ceiling: at least 12,000 feet AGL
Clouds: few clouds at 1000 feet AGL
Weather: no significant weather observed at this time

METAR text: FGSL 210800Z VRB02KT 9999 FEW010 29/24 Q1011 NOSIG
Conditions at: FGSL (MALABO/FERNANDO , GQ) observed 0800 UTC 21 March 2019
Temperature: 29.0°C (84°F)
Dewpoint: 24.0°C (75°F) [RH = 74%]
Pressure (altimeter): 29.85 inches Hg (1011.0 mb)
Winds: variable direction winds at 2 MPH (2 knots; 1.0 m/s)
Visibility: 6 or more miles (10+ km)
Ceiling: at least 12,000 feet AGL
Clouds: few clouds at 1000 feet AGL
Weather: no significant weather observed at this time

METAR text: FGSL 210700Z VRB02KT 9999 TS FEW010 FEW020CB 27/24 Q1010 BECMG NSW
Conditions at: FGSL (MALABO/FERNANDO , GQ) observed 0700 UTC 21 March 2019
Temperature: 27.0°C (81°F)
Dewpoint: 24.0°C (75°F) [RH = 84%]
Pressure (altimeter): 29.82 inches Hg (1010.0 mb)
Winds: variable direction winds at 2 MPH (2 knots; 1.0 m/s)
Visibility: 6 or more miles (10+ km)
Ceiling: at least 12,000 feet AGL
Clouds: few clouds at 1000 feet AGL
few clouds at 2000 feet AGL
Weather: TS  (thunderstorm)

METAR text: FGSL 210600Z 18002KT 9999 TS FEW010 FEW020CB 27/24 Q1009 NOSIG
Conditions at: FGSL (MALABO/FERNANDO , GQ) observed 0600 UTC 21 March 2019
Temperature: 27.0°C (81°F)
Dewpoint: 24.0°C (75°F) [RH = 84%]
Pressure (altimeter): 29.79 inches Hg (1009.0 mb)
Winds: from the S (180 degrees) at 2 MPH (2 knots; 1.0 m/s)
Visibility: 6 or more miles (10+ km)
Ceiling: at least 12,000 feet AGL
Clouds: few clouds at 1000 feet AGL
few clouds at 2000 feet AGL
Weather: TS  (thunderstorm)

METAR text: FGSL 210500Z 24005KT 9999 FEW010 27/24 Q1008 NOSIG
Conditions at: FGSL (MALABO/FERNANDO , GQ) observed 0500 UTC 21 March 2019
Temperature: 27.0°C (81°F)
Dewpoint: 24.0°C (75°F) [RH = 84%]
Pressure (altimeter): 29.76 inches Hg (1008.0 mb)
Winds: from the WSW (240 degrees) at 6 MPH (5 knots; 2.6 m/s)
Visibility: 6 or more miles (10+ km)
Ceiling: at least 12,000 feet AGL
Clouds: few clouds at 1000 feet AGL
Weather: no significant weather observed at this time

METAR text: FGSL 210400Z 22006KT 9999 FEW010 27/24 Q1008 NOSIG
Conditions at: FGSL (MALABO/FERNANDO , GQ) observed 0400 UTC 21 March 2019
Temperature: 27.0°C (81°F)
Dewpoint: 24.0°C (75°F) [RH = 84%]
Pressure (altimeter): 29.76 inches Hg (1008.0 mb)
Winds: from the SW (220 degrees) at 7 MPH (6 knots; 3.1 m/s)
Visibility: 6 or more miles (10+ km)
Ceiling: at least 12,000 feet AGL
Clouds: few clouds at 1000 feet AGL
Weather: no significant weather observed at this time

METAR text: FGSL 210300Z 23004KT 9999 FEW010 27/24 Q1008 NOSIG
Conditions at: FGSL (MALABO/FERNANDO , GQ) observed 0300 UTC 21 March 2019
Temperature: 27.0°C (81°F)
Dewpoint: 24.0°C (75°F) [RH = 84%]
Pressure (altimeter): 29.76 inches Hg (1008.0 mb)
Winds: from the SW (230 degrees) at 5 MPH (4 knots; 2.1 m/s)
Visibility: 6 or more miles (10+ km)
Ceiling: at least 12,000 feet AGL
Clouds: few clouds at 1000 feet AGL
Weather: no significant weather observed at this time

METAR text: FGSL 210200Z 25006KT 9999 FEW010 28/24 Q1008 NOSIG
Conditions at: FGSL (MALABO/FERNANDO , GQ) observed 0200 UTC 21 March 2019
Temperature: 28.0°C (82°F)
Dewpoint: 24.0°C (75°F) [RH = 79%]
Pressure (altimeter): 29.76 inches Hg (1008.0 mb)
Winds: from the WSW (250 degrees) at 7 MPH (6 knots; 3.1 m/s)
Visibility: 6 or more miles (10+ km)
Ceiling: at least 12,000 feet AGL
Clouds: few clouds at 1000 feet AGL
Weather: no significant weather observed at this time

METAR text: FGSL 210100Z 25006KT 9999 FEW010 28/25 Q1008 NOSIG
Conditions at: FGSL (MALABO/FERNANDO , GQ) observed 0100 UTC 21 March 2019
Temperature: 28.0°C (82°F)
Dewpoint: 25.0°C (77°F) [RH = 84%]
Pressure (altimeter): 29.76 inches Hg (1008.0 mb)
Winds: from the WSW (250 degrees) at 7 MPH (6 knots; 3.1 m/s)
Visibility: 6 or more miles (10+ km)
Ceiling: at least 12,000 feet AGL
Clouds: few clouds at 1000 feet AGL
Weather: no significant weather observed at this time

Forecast for: FGSL (MALABO/FERNANDO , GQ)
Text: TAF FGSL 221100Z 2212/2318 24008KT 8000 TS SCT010 FEW020CB
Forecast period: 1200 to 1500 UTC 22 March 2019
Forecast type: FROM: standard forecast or significant change
Winds: from the WSW (240 degrees) at 9 MPH (8 knots; 4.1 m/s)
Visibility: 5 miles (8 km)
Ceiling: at least 12,000 feet AGL
Clouds: scattered clouds at 1000 feet AGL
few clouds at 2000 feet AGL
Weather: TS  (thunderstorm)
Text: TEMPO 2212/2215 4000 TSRA BKN008 FEW018CB
Forecast period: 1200 to 1500 UTC 22 March 2019
Forecast type: TEMPORARY: The following changes expected for less than half the time period
Visibility: 2.49 miles (4.01 km)
Ceiling: 800 feet AGL
Clouds: broken clouds at 800 feet AGL
few clouds at 1800 feet AGL
Weather: TSRA  (rain associated with thunderstorm(s))
Text: BECMG 2215/2217 NSW
Forecast period: 1500 UTC 22 March 2019 to 1800 UTC 23 March 2019
Forecast type: BECOMING: Conditions expected to become as follows by 1700 UTC 22 March 2019
Winds: from the WSW (240 degrees) at 9 MPH (8 knots; 4.1 m/s)
Visibility: 5 miles (8 km)
Ceiling: at least 12,000 feet AGL
Clouds: scattered clouds at 1000 feet AGL
few clouds at 2000 feet AGL
Weather: NSW  (no significant weather)
Text: PROB30
Forecast period: 0000 to 0600 UTC 23 March 2019
Forecast type: TEMPORARY: The following changes expected for less than half the time period
Visibility: missing
Ceiling: unknown
Clouds: missing
Weather: TS  (thunderstorm)
Text: TEMPO 2300/2306 TS
Forecast period: 1100 to 1600 UTC 23 March 2019
Forecast type: TEMPORARY: The following changes expected for less than half the time period
Visibility: missing
Ceiling: 1000 feet AGL
Clouds: broken clouds at 1000 feet AGL
few clouds at 2000 feet AGL
Weather: no significant weather forecast for this period